sensor_id;sensor_type;location;lat;lon;timestamp;pressure;altitude;pressure_sealevel;temperature;humidity
3524;BME280;1776;53.330;11.498;2023-01-25T00:00:38;22576.78;;;-147.39;71.29
3524;BME280;1776;53.330;11.498;2023-01-25T00:03:03;22588.97;;;-147.39;71.37
3524;BME280;1776;53.330;11.498;2023-01-25T00:05:29;22615.41;;;-147.39;71.31
3524;BME280;1776;53.330;11.498;2023-01-25T00:07:54;22568.66;;;-147.39;71.64
3524;BME280;1776;53.330;11.498;2023-01-25T00:10:19;22597.09;;;-147.39;71.74
3524;BME280;1776;53.330;11.498;2023-01-25T00:12:44;22747.50;;;-147.39;71.96
3524;BME280;1776;53.330;11.498;2023-01-25T00:15:10;22556.47;;;-147.39;72.23
3524;BME280;1776;53.330;11.498;2023-01-25T00:17:35;22580.84;;;-147.39;71.84
3524;BME280;1776;53.330;11.498;2023-01-25T00:20:01;22576.78;;;-147.39;71.87
3524;BME280;1776;53.330;11.498;2023-01-25T00:22:26;22601.19;;;-147.39;72.11
3524;BME280;1776;53.330;11.498;2023-01-25T00:24:52;22558.50;;;-147.39;72.24
3524;BME280;1776;53.330;11.498;2023-01-25T00:27:17;22562.56;;;-147.39;72.31
3524;BME280;1776;53.330;11.498;2023-01-25T00:29:42;22076.81;;;-147.39;72.11
3524;BME280;1776;53.330;11.498;2023-01-25T00:34:49;22552.41;;;-147.39;72.62
3524;BME280;1776;53.330;11.498;2023-01-25T00:37:39;22525.97;;;-147.39;72.83
3524;BME280;1776;53.330;11.498;2023-01-25T00:40:08;22530.03;;;-147.39;72.63
3524;BME280;1776;53.330;11.498;2023-01-25T00:42:34;22542.22;;;-147.39;72.65
3524;BME280;1776;53.330;11.498;2023-01-25T00:44:59;22556.47;;;-147.39;72.54
3524;BME280;1776;53.330;11.498;2023-01-25T00:47:25;22710.94;;;-147.39;72.60
3524;BME280;1776;53.330;11.498;2023-01-25T00:49:50;22625.56;;;-147.39;72.25
3524;BME280;1776;53.330;11.498;2023-01-25T00:52:15;22558.50;;;-147.39;71.94
3524;BME280;1776;53.330;11.498;2023-01-25T00:54:41;22633.69;;;-147.39;71.46
3524;BME280;1776;53.330;11.498;2023-01-25T00:57:07;22568.66;;;-147.39;71.61
3524;BME280;1776;53.330;11.498;2023-01-25T00:59:33;22597.09;;;-147.39;71.52
3524;BME280;1776;53.330;11.498;2023-01-25T01:01:59;22560.53;;;-147.39;71.44
3524;BME280;1776;53.330;11.498;2023-01-25T01:04:24;22568.66;;;-147.39;71.74
3524;BME280;1776;53.330;11.498;2023-01-25T01:06:51;22586.94;;;-147.39;71.69
3524;BME280;1776;53.330;11.498;2023-01-25T01:09:18;22591.00;;;-147.39;71.82
3524;BME280;1776;53.330;11.498;2023-01-25T01:11:44;22609.31;;;-147.39;71.42
3524;BME280;1776;53.330;11.498;2023-01-25T01:14:09;22656.06;;;-147.39;71.29
3524;BME280;1776;53.330;11.498;2023-01-25T01:16:35;22678.41;;;-147.39;71.32
3524;BME280;1776;53.330;11.498;2023-01-25T01:19:00;22617.44;;;-147.39;71.11
3524;BME280;1776;53.330;11.498;2023-01-25T01:21:26;22595.06;;;-147.39;71.31
3524;BME280;1776;53.330;11.498;2023-01-25T01:23:53;22588.97;;;-147.39;71.36
3524;BME280;1776;53.330;11.498;2023-01-25T01:26:18;22597.09;;;-147.39;71.47
3524;BME280;1776;53.330;11.498;2023-01-25T01:28:44;22588.97;;;-147.39;71.80
3524;BME280;1776;53.330;11.498;2023-01-25T01:31:15;22601.19;;;-147.39;71.38
3524;BME280;1776;53.330;11.498;2023-01-25T01:33:41;22601.19;;;-147.39;71.48
3524;BME280;1776;53.330;11.498;2023-01-25T01:36:12;22706.88;;;-147.39;71.48
3524;BME280;1776;53.330;11.498;2023-01-25T01:38:37;22615.41;;;-147.39;70.92
3524;BME280;1776;53.330;11.498;2023-01-25T01:41:03;22672.31;;;-147.39;70.63
3524;BME280;1776;53.330;11.498;2023-01-25T01:43:28;22753.63;;;-147.39;70.92
3524;BME280;1776;53.330;11.498;2023-01-25T01:45:59;22643.84;;;-147.39;70.38
3524;BME280;1776;53.330;11.498;2023-01-25T01:48:48;22637.75;;;-147.39;70.24
3524;BME280;1776;53.330;11.498;2023-01-25T01:51:26;22619.47;;;-147.39;70.44
3524;BME280;1776;53.330;11.498;2023-01-25T01:54:02;22611.34;;;-147.39;70.43
3524;BME280;1776;53.330;11.498;2023-01-25T01:56:33;22635.72;;;-147.39;70.72
3524;BME280;1776;53.330;11.498;2023-01-25T01:58:59;22611.34;;;-147.39;71.08
3524;BME280;1776;53.330;11.498;2023-01-25T02:01:26;22621.50;;;-147.39;71.50
3524;BME280;1776;53.330;11.498;2023-01-25T02:03:52;22607.28;;;-147.39;71.46
3524;BME280;1776;53.330;11.498;2023-01-25T02:06:36;22574.75;;;-147.39;71.66
3524;BME280;1776;53.330;11.498;2023-01-25T02:09:03;22574.75;;;-147.39;71.62
3524;BME280;1776;53.330;11.498;2023-01-25T02:11:29;22580.84;;;-147.39;71.53
3524;BME280;1776;53.330;11.498;2023-01-25T02:13:57;22560.53;;;-147.39;71.54
3524;BME280;1776;53.330;11.498;2023-01-25T02:16:26;22666.22;;;-147.39;71.67
3524;BME280;1776;53.330;11.498;2023-01-25T02:18:52;22645.88;;;-147.39;71.63
3524;BME280;1776;53.330;11.498;2023-01-25T02:21:20;22863.38;;;-147.39;71.36
3524;BME280;1776;53.330;11.498;2023-01-25T02:23:53;22546.31;;;-147.39;71.61
3524;BME280;1776;53.330;11.498;2023-01-25T02:26:22;22599.16;;;-147.39;72.21
3524;BME280;1776;53.330;11.498;2023-01-25T02:28:55;22566.63;;;-147.39;72.15
3524;BME280;1776;53.330;11.498;2023-01-25T02:31:23;22599.16;;;-147.39;71.89
3524;BME280;1776;53.330;11.498;2023-01-25T02:33:48;22751.59;;;-147.39;72.19
3524;BME280;1776;53.330;11.498;2023-01-25T02:36:20;22552.41;;;-147.39;72.56
3524;BME280;1776;53.330;11.498;2023-01-25T02:39:02;22690.59;;;-147.39;72.34
3524;BME280;1776;53.330;11.498;2023-01-25T02:41:36;22615.41;;;-147.39;72.69
3524;BME280;1776;53.330;11.498;2023-01-25T02:44:06;22593.03;;;-147.39;72.64
3524;BME280;1776;53.330;11.498;2023-01-25T02:46:34;22676.38;;;-147.39;72.93
3524;BME280;1776;53.330;11.498;2023-01-25T02:49:01;22603.22;;;-147.39;72.91
3524;BME280;1776;53.330;11.498;2023-01-25T02:51:29;22550.38;;;-147.39;72.89
3524;BME280;1776;53.330;11.498;2023-01-25T02:53:54;22373.53;;;-147.39;73.06
3524;BME280;1776;53.330;11.498;2023-01-25T02:56:20;22542.22;;;-147.39;73.06
3524;BME280;1776;53.330;11.498;2023-01-25T02:58:46;22558.50;;;-147.39;72.90
3524;BME280;1776;53.330;11.498;2023-01-25T03:01:12;22542.22;;;-147.39;72.93
3524;BME280;1776;53.330;11.498;2023-01-25T03:03:38;22530.03;;;-147.39;72.65
3524;BME280;1776;53.330;11.498;2023-01-25T03:06:04;22558.50;;;-147.39;72.49
3524;BME280;1776;53.330;11.498;2023-01-25T03:08:29;22578.81;;;-147.39;72.81
3524;BME280;1776;53.330;11.498;2023-01-25T03:10:56;22591.00;;;-147.39;72.33
3524;BME280;1776;53.330;11.498;2023-01-25T03:13:22;22568.66;;;-147.39;72.54
3524;BME280;1776;53.330;11.498;2023-01-25T03:15:47;22635.72;;;-147.39;72.58
3524;BME280;1776;53.330;11.498;2023-01-25T03:18:12;22525.97;;;-147.39;72.16
3524;BME280;1776;53.330;11.498;2023-01-25T03:20:37;22593.03;;;-147.39;72.33
3524;BME280;1776;53.330;11.498;2023-01-25T03:23:03;22560.53;;;-147.39;72.26
3524;BME280;1776;53.330;11.498;2023-01-25T03:25:28;22649.97;;;-147.39;72.51
3524;BME280;1776;53.330;11.498;2023-01-25T03:27:53;22570.69;;;-147.39;72.75
3524;BME280;1776;53.330;11.498;2023-01-25T03:30:20;22548.34;;;-147.39;72.83
3524;BME280;1776;53.330;11.498;2023-01-25T03:32:45;22576.78;;;-147.39;72.97
3524;BME280;1776;53.330;11.498;2023-01-25T03:35:10;22613.38;;;-147.39;73.22
3524;BME280;1776;53.330;11.498;2023-01-25T03:37:35;22580.84;;;-147.39;73.21
3524;BME280;1776;53.330;11.498;2023-01-25T03:40:01;22546.31;;;-147.39;73.25
3524;BME280;1776;53.330;11.498;2023-01-25T03:42:26;22544.25;;;-147.39;73.48
3524;BME280;1776;53.330;11.498;2023-01-25T03:44:52;22521.91;;;-147.39;73.47
3524;BME280;1776;53.330;11.498;2023-01-25T03:47:17;22576.78;;;-147.39;73.27
3524;BME280;1776;53.330;11.498;2023-01-25T03:49:42;22556.47;;;-147.39;73.15
3524;BME280;1776;53.330;11.498;2023-01-25T03:52:08;22076.81;;;-147.39;73.19
3524;BME280;1776;53.330;11.498;2023-01-25T03:54:33;22548.34;;;-147.39;73.15
3524;BME280;1776;53.330;11.498;2023-01-25T03:56:58;22525.97;;;-147.39;73.22
3524;BME280;1776;53.330;11.498;2023-01-25T03:59:24;22548.34;;;-147.39;72.61
3524;BME280;1776;53.330;11.498;2023-01-25T04:01:49;22706.88;;;-147.39;72.67
3524;BME280;1776;53.330;11.498;2023-01-25T04:04:14;22568.66;;;-147.39;72.88
3524;BME280;1776;53.330;11.498;2023-01-25T04:06:40;22318.66;;;-147.39;72.70
3524;BME280;1776;53.330;11.498;2023-01-25T04:09:06;22536.13;;;-147.39;72.56
3524;BME280;1776;53.330;11.498;2023-01-25T04:11:31;22576.78;;;-147.39;72.78
3524;BME280;1776;53.330;11.498;2023-01-25T04:13:56;22593.03;;;-147.39;72.55
3524;BME280;1776;53.330;11.498;2023-01-25T04:16:22;22558.50;;;-147.39;72.23
3524;BME280;1776;53.330;11.498;2023-01-25T04:18:47;22566.63;;;-147.39;72.08
3524;BME280;1776;53.330;11.498;2023-01-25T04:21:12;22442.66;;;-147.39;72.28
3524;BME280;1776;53.330;11.498;2023-01-25T04:23:38;22582.88;;;-147.39;72.44
3524;BME280;1776;53.330;11.498;2023-01-25T04:26:05;22674.34;;;-147.39;72.40
3524;BME280;1776;53.330;11.498;2023-01-25T04:28:32;22574.75;;;-147.39;71.94
3524;BME280;1776;53.330;11.498;2023-01-25T04:30:58;22658.09;;;-147.39;72.14
3524;BME280;1776;53.330;11.498;2023-01-25T04:33:23;22570.69;;;-147.39;72.51
3524;BME280;1776;53.330;11.498;2023-01-25T04:35:49;22558.50;;;-147.39;72.51
3524;BME280;1776;53.330;11.498;2023-01-25T04:38:15;22562.56;;;-147.39;72.64
3524;BME280;1776;53.330;11.498;2023-01-25T04:40:42;22552.41;;;-147.39;73.07
3524;BME280;1776;53.330;11.498;2023-01-25T04:43:07;22564.59;;;-147.39;73.02
3524;BME280;1776;53.330;11.498;2023-01-25T04:45:33;22554.44;;;-147.39;73.04
3524;BME280;1776;53.330;11.498;2023-01-25T04:48:02;22507.69;;;-147.39;73.23
3524;BME280;1776;53.330;11.498;2023-01-25T04:50:28;22591.00;;;-147.39;72.97
3524;BME280;1776;53.330;11.498;2023-01-25T04:52:53;22544.25;;;-147.39;72.48
3524;BME280;1776;53.330;11.498;2023-01-25T04:55:19;22560.53;;;-147.39;72.66
3524;BME280;1776;53.330;11.498;2023-01-25T04:57:48;22546.31;;;-147.39;72.85
3524;BME280;1776;53.330;11.498;2023-01-25T05:00:14;22556.47;;;-147.39;73.08
3524;BME280;1776;53.330;11.498;2023-01-25T05:02:39;22584.91;;;-147.39;72.94
3524;BME280;1776;53.330;11.498;2023-01-25T05:05:05;22542.22;;;-147.39;73.07
3524;BME280;1776;53.330;11.498;2023-01-25T05:07:30;22554.44;;;-147.39;72.89
3524;BME280;1776;53.330;11.498;2023-01-25T05:09:55;22615.41;;;-147.39;72.94
3524;BME280;1776;53.330;11.498;2023-01-25T05:12:21;22556.47;;;-147.39;72.92
3524;BME280;1776;53.330;11.498;2023-01-25T05:14:46;22511.75;;;-147.39;72.85
3524;BME280;1776;53.330;11.498;2023-01-25T05:17:11;22532.06;;;-147.39;73.44
3524;BME280;1776;53.330;11.498;2023-01-25T05:19:37;22548.34;;;-147.39;73.32
3524;BME280;1776;53.330;11.498;2023-01-25T05:22:02;22509.72;;;-147.39;72.74
3524;BME280;1776;53.330;11.498;2023-01-25T05:24:33;22556.47;;;-147.39;72.77
3524;BME280;1776;53.330;11.498;2023-01-25T05:26:59;22538.16;;;-147.39;72.87
3524;BME280;1776;53.330;11.498;2023-01-25T05:29:28;22546.31;;;-147.39;73.08
3524;BME280;1776;53.330;11.498;2023-01-25T05:31:54;22593.03;;;-147.39;72.94
3524;BME280;1776;53.330;11.498;2023-01-25T05:34:19;22570.69;;;-147.39;72.72
3524;BME280;1776;53.330;11.498;2023-01-25T05:36:45;22558.50;;;-147.39;73.48
3524;BME280;1776;53.330;11.498;2023-01-25T05:39:10;22552.41;;;-147.39;73.38
3524;BME280;1776;53.330;11.498;2023-01-25T05:41:35;22548.34;;;-147.39;73.44
3524;BME280;1776;53.330;11.498;2023-01-25T05:44:01;22521.91;;;-147.39;73.71
3524;BME280;1776;53.330;11.498;2023-01-25T05:46:26;22509.72;;;-147.39;73.77
3524;BME280;1776;53.330;11.498;2023-01-25T05:48:52;22739.38;;;-147.39;74.08
3524;BME280;1776;53.330;11.498;2023-01-25T05:51:17;22523.94;;;-147.39;73.65
3524;BME280;1776;53.330;11.498;2023-01-25T05:53:42;21772.00;;;-147.39;73.90
3524;BME280;1776;53.330;11.498;2023-01-25T05:56:08;22560.53;;;-147.39;73.86
3524;BME280;1776;53.330;11.498;2023-01-25T05:58:37;22536.13;;;-147.39;74.05
3524;BME280;1776;53.330;11.498;2023-01-25T06:01:04;22501.59;;;-147.39;74.05
3524;BME280;1776;53.330;11.498;2023-01-25T06:03:29;22591.00;;;-147.39;73.79
3524;BME280;1776;53.330;11.498;2023-01-25T06:05:55;22507.69;;;-147.39;73.49
3524;BME280;1776;53.330;11.498;2023-01-25T06:08:21;22491.41;;;-147.39;74.07
3524;BME280;1776;53.330;11.498;2023-01-25T06:10:46;22536.13;;;-147.39;74.13
3524;BME280;1776;53.330;11.498;2023-01-25T06:13:11;22495.50;;;-147.39;74.09
3524;BME280;1776;53.330;11.498;2023-01-25T06:15:36;22515.81;;;-147.39;74.04
3524;BME280;1776;53.330;11.498;2023-01-25T06:18:02;22481.25;;;-147.39;73.77
3524;BME280;1776;53.330;11.498;2023-01-25T06:20:27;22438.56;;;-147.39;76.48
3524;BME280;1776;53.330;11.498;2023-01-25T06:22:52;22534.09;;;-147.39;74.28
3524;BME280;1776;53.330;11.498;2023-01-25T06:25:18;22477.19;;;-147.39;73.94
3524;BME280;1776;53.330;11.498;2023-01-25T06:27:43;22505.66;;;-147.39;74.17
3524;BME280;1776;53.330;11.498;2023-01-25T06:30:09;22513.78;;;-147.39;73.85
3524;BME280;1776;53.330;11.498;2023-01-25T06:32:34;22487.34;;;-147.39;73.86
3524;BME280;1776;53.330;11.498;2023-01-25T06:35:00;22511.75;;;-147.39;74.46
3524;BME280;1776;53.330;11.498;2023-01-25T06:37:25;22489.38;;;-147.39;73.99
3524;BME280;1776;53.330;11.498;2023-01-25T06:39:50;22511.75;;;-147.39;74.40
3524;BME280;1776;53.330;11.498;2023-01-25T06:42:15;22515.81;;;-147.39;74.27
3524;BME280;1776;53.330;11.498;2023-01-25T06:44:41;22487.34;;;-147.39;74.53
3524;BME280;1776;53.330;11.498;2023-01-25T06:47:09;22475.16;;;-147.39;74.30
3524;BME280;1776;53.330;11.498;2023-01-25T06:49:35;22469.06;;;-147.39;74.84
3524;BME280;1776;53.330;11.498;2023-01-25T06:52:00;22491.41;;;-147.39;74.94
3524;BME280;1776;53.330;11.498;2023-01-25T06:54:26;22542.22;;;-147.39;75.07
3524;BME280;1776;53.330;11.498;2023-01-25T06:56:51;22493.47;;;-147.39;74.83
3524;BME280;1776;53.330;11.498;2023-01-25T06:59:16;22475.16;;;-147.39;74.88
3524;BME280;1776;53.330;11.498;2023-01-25T07:01:42;22483.28;;;-147.39;74.93
3524;BME280;1776;53.330;11.498;2023-01-25T07:04:08;22465.00;;;-147.39;74.55
3524;BME280;1776;53.330;11.498;2023-01-25T07:06:35;22475.16;;;-147.39;74.91
3524;BME280;1776;53.330;11.498;2023-01-25T07:09:09;22467.03;;;-147.39;74.70
3524;BME280;1776;53.330;11.498;2023-01-25T07:11:35;22448.75;;;-147.39;74.68
3524;BME280;1776;53.330;11.498;2023-01-25T07:14:01;22532.06;;;-147.39;74.38
3524;BME280;1776;53.330;11.498;2023-01-25T07:16:27;22485.31;;;-147.39;74.49
3524;BME280;1776;53.330;11.498;2023-01-25T07:18:53;22304.44;;;-147.39;74.40
3524;BME280;1776;53.330;11.498;2023-01-25T07:21:20;22525.97;;;-147.39;74.19
3524;BME280;1776;53.330;11.498;2023-01-25T07:23:47;22503.63;;;-147.39;74.62
3524;BME280;1776;53.330;11.498;2023-01-25T07:26:21;22538.16;;;-147.39;74.36
3524;BME280;1776;53.330;11.498;2023-01-25T07:28:47;22456.88;;;-147.39;74.36
3524;BME280;1776;53.330;11.498;2023-01-25T07:31:14;22534.09;;;-147.39;74.61
3524;BME280;1776;53.330;11.498;2023-01-25T07:33:39;22491.41;;;-147.39;74.55
3524;BME280;1776;53.330;11.498;2023-01-25T07:36:07;22538.16;;;-147.39;74.65
3524;BME280;1776;53.330;11.498;2023-01-25T07:38:33;22465.00;;;-147.39;75.18
3524;BME280;1776;53.330;11.498;2023-01-25T07:40:58;22481.25;;;-147.39;75.18
3524;BME280;1776;53.330;11.498;2023-01-25T07:43:24;22511.75;;;-147.39;74.97
3524;BME280;1776;53.330;11.498;2023-01-25T07:45:50;22467.03;;;-147.39;74.95
3524;BME280;1776;53.330;11.498;2023-01-25T07:48:16;22495.50;;;-147.39;75.07
3524;BME280;1776;53.330;11.498;2023-01-25T07:50:42;22479.22;;;-147.39;74.77
3524;BME280;1776;53.330;11.498;2023-01-25T07:53:11;22491.41;;;-147.39;75.13
3524;BME280;1776;53.330;11.498;2023-01-25T07:55:36;22469.06;;;-147.39;75.41
3524;BME280;1776;53.330;11.498;2023-01-25T07:58:01;22452.81;;;-147.39;75.35
3524;BME280;1776;53.330;11.498;2023-01-25T08:00:27;22426.38;;;-147.39;75.64
3524;BME280;1776;53.330;11.498;2023-01-25T08:02:52;22446.72;;;-147.39;75.75
3524;BME280;1776;53.330;11.498;2023-01-25T08:05:18;22499.56;;;-147.39;75.87
3524;BME280;1776;53.330;11.498;2023-01-25T08:07:44;22452.81;;;-147.39;75.52
3524;BME280;1776;53.330;11.498;2023-01-25T08:10:09;22475.16;;;-147.39;75.24
3524;BME280;1776;53.330;11.498;2023-01-25T08:12:35;22452.81;;;-147.39;75.00
3524;BME280;1776;53.330;11.498;2023-01-25T08:15:02;22499.56;;;-147.39;74.93
3524;BME280;1776;53.330;11.498;2023-01-25T08:17:28;22440.63;;;-147.39;74.96
3524;BME280;1776;53.330;11.498;2023-01-25T08:19:57;22458.91;;;-147.39;75.15
3524;BME280;1776;53.330;11.498;2023-01-25T08:22:23;22505.66;;;-147.39;75.69
3524;BME280;1776;53.330;11.498;2023-01-25T08:24:48;22436.53;;;-147.39;75.52
3524;BME280;1776;53.330;11.498;2023-01-25T08:27:14;22442.66;;;-147.39;75.85
3524;BME280;1776;53.330;11.498;2023-01-25T08:29:39;22452.81;;;-147.39;76.04
3524;BME280;1776;53.330;11.498;2023-01-25T08:32:05;22473.13;;;-147.39;76.22
3524;BME280;1776;53.330;11.498;2023-01-25T08:34:31;22465.00;;;-147.39;76.33
3524;BME280;1776;53.330;11.498;2023-01-25T08:36:57;22428.41;;;-147.39;76.10
3524;BME280;1776;53.330;11.498;2023-01-25T08:39:22;22430.44;;;-147.39;76.43
3524;BME280;1776;53.330;11.498;2023-01-25T08:41:48;22424.34;;;-147.39;76.09
3524;BME280;1776;53.330;11.498;2023-01-25T08:44:13;22420.28;;;-147.39;75.97
3524;BME280;1776;53.330;11.498;2023-01-25T08:46:38;22448.75;;;-147.39;75.79
3524;BME280;1776;53.330;11.498;2023-01-25T08:49:04;22444.69;;;-147.39;75.89
3524;BME280;1776;53.330;11.498;2023-01-25T08:51:30;22436.53;;;-147.39;76.27
3524;BME280;1776;53.330;11.498;2023-01-25T08:53:56;22422.31;;;-147.39;76.58
3524;BME280;1776;53.330;11.498;2023-01-25T08:56:21;22416.22;;;-147.39;76.53
3524;BME280;1776;53.330;11.498;2023-01-25T08:58:48;22399.97;;;-147.39;77.14
3524;BME280;1776;53.330;11.498;2023-01-25T09:01:15;22397.94;;;-147.39;77.37
3524;BME280;1776;53.330;11.498;2023-01-25T09:03:43;22430.44;;;-147.39;77.38
3524;BME280;1776;53.330;11.498;2023-01-25T09:06:09;22412.16;;;-147.39;77.41
3524;BME280;1776;53.330;11.498;2023-01-25T09:08:35;22373.53;;;-147.39;77.61
3524;BME280;1776;53.330;11.498;2023-01-25T09:11:08;22389.81;;;-147.39;77.64
3524;BME280;1776;53.330;11.498;2023-01-25T09:13:34;22432.47;;;-147.39;77.58
3524;BME280;1776;53.330;11.498;2023-01-25T09:16:05;22467.03;;;-147.39;77.22
3524;BME280;1776;53.330;11.498;2023-01-25T09:18:31;22418.25;;;-147.39;77.46
3524;BME280;1776;53.330;11.498;2023-01-25T09:20:57;22361.34;;;-147.39;77.56
3524;BME280;1776;53.330;11.498;2023-01-25T09:23:22;22483.28;;;-147.39;77.69
3524;BME280;1776;53.330;11.498;2023-01-25T09:25:55;22369.47;;;-147.39;77.64
3524;BME280;1776;53.330;11.498;2023-01-25T09:28:20;21723.25;;;-147.39;77.62
3524;BME280;1776;53.330;11.498;2023-01-25T09:30:53;22379.63;;;-147.39;77.60
3524;BME280;1776;53.330;11.498;2023-01-25T09:33:18;22379.63;;;-147.39;78.04
3524;BME280;1776;53.330;11.498;2023-01-25T09:35:47;22253.63;;;-147.39;78.41
3524;BME280;1776;53.330;11.498;2023-01-25T09:38:13;22371.50;;;-147.39;78.37
3524;BME280;1776;53.330;11.498;2023-01-25T09:40:40;22322.72;;;-147.39;78.02
3524;BME280;1776;53.330;11.498;2023-01-25T09:43:27;22389.81;;;-147.39;78.05
3524;BME280;1776;53.330;11.498;2023-01-25T09:45:56;22367.44;;;-147.39;78.09
3524;BME280;1776;53.330;11.498;2023-01-25T09:48:30;22341.03;;;-147.39;78.03
3524;BME280;1776;53.330;11.498;2023-01-25T09:51:15;22345.09;;;-147.39;77.91
3524;BME280;1776;53.330;11.498;2023-01-25T09:53:49;22373.53;;;-147.39;77.53
3524;BME280;1776;53.330;11.498;2023-01-25T09:56:29;22404.03;;;-147.39;77.88
3524;BME280;1776;53.330;11.498;2023-01-25T09:58:59;22355.25;;;-147.39;77.83
3524;BME280;1776;53.330;11.498;2023-01-25T10:01:43;22343.06;;;-147.39;78.24
3524;BME280;1776;53.330;11.498;2023-01-25T10:04:16;22355.25;;;-147.39;77.96
3524;BME280;1776;53.330;11.498;2023-01-25T10:06:43;22359.31;;;-147.39;78.16
3524;BME280;1776;53.330;11.498;2023-01-25T10:09:32;22353.22;;;-147.39;77.79
3524;BME280;1776;53.330;11.498;2023-01-25T10:12:18;22361.34;;;-147.39;77.98
3524;BME280;1776;53.330;11.498;2023-01-25T10:14:44;22336.97;;;-147.39;77.92
3524;BME280;1776;53.330;11.498;2023-01-25T10:17:16;22367.44;;;-147.39;77.92
3524;BME280;1776;53.330;11.498;2023-01-25T10:20:00;22341.03;;;-147.39;78.48
3524;BME280;1776;53.330;11.498;2023-01-25T10:22:31;22332.91;;;-147.39;78.51
3524;BME280;1776;53.330;11.498;2023-01-25T10:25:17;22341.03;;;-147.39;78.35
3524;BME280;1776;53.330;11.498;2023-01-25T10:27:59;22318.66;;;-147.39;78.37
3524;BME280;1776;53.330;11.498;2023-01-25T10:30:30;22343.06;;;-147.39;78.36
3524;BME280;1776;53.330;11.498;2023-01-25T10:33:00;22334.94;;;-147.39;78.56
3524;BME280;1776;53.330;11.498;2023-01-25T10:35:29;22326.81;;;-147.39;78.75
3524;BME280;1776;53.330;11.498;2023-01-25T10:37:58;22334.94;;;-147.39;78.19
3524;BME280;1776;53.330;11.498;2023-01-25T10:40:30;22345.09;;;-147.39;78.46
3524;BME280;1776;53.330;11.498;2023-01-25T10:43:02;22324.75;;;-147.39;78.24
3524;BME280;1776;53.330;11.498;2023-01-25T10:45:30;22296.31;;;-147.39;77.82
3524;BME280;1776;53.330;11.498;2023-01-25T10:48:00;22328.84;;;-147.39;77.86
3524;BME280;1776;53.330;11.498;2023-01-25T10:53:37;22332.91;;;-147.39;77.79
3524;BME280;1776;53.330;11.498;2023-01-25T10:58:41;22334.94;;;-147.39;78.64
3524;BME280;1776;53.330;11.498;2023-01-25T11:01:09;22306.47;;;-147.39;78.62
3524;BME280;1776;53.330;11.498;2023-01-25T11:03:41;22351.19;;;-147.39;78.47
3524;BME280;1776;53.330;11.498;2023-01-25T11:06:09;22353.22;;;-147.39;78.22
3524;BME280;1776;53.330;11.498;2023-01-25T11:08:40;22318.66;;;-147.39;77.47
3524;BME280;1776;53.330;11.498;2023-01-25T11:13:49;22414.19;;;-147.39;76.80
3524;BME280;1776;53.330;11.498;2023-01-25T11:16:24;22341.03;;;-147.39;76.95
3524;BME280;1776;53.330;11.498;2023-01-25T11:18:54;22357.28;;;-147.39;76.77
3524;BME280;1776;53.330;11.498;2023-01-25T11:21:25;22357.28;;;-147.39;77.38
3524;BME280;1776;53.330;11.498;2023-01-25T11:26:27;22420.28;;;-147.39;77.00
3524;BME280;1776;53.330;11.498;2023-01-25T11:31:36;22345.09;;;-147.39;76.67
3524;BME280;1776;53.330;11.498;2023-01-25T11:34:08;21857.34;;;-147.39;76.87
3524;BME280;1776;53.330;11.498;2023-01-25T11:39:25;22339.00;;;-147.39;77.43
3524;BME280;1776;53.330;11.498;2023-01-25T11:50:06;22345.09;;;-147.39;77.77
3524;BME280;1776;53.330;11.498;2023-01-25T11:55:44;22330.88;;;-147.39;77.28
3524;BME280;1776;53.330;11.498;2023-01-25T11:58:37;22308.50;;;-147.39;77.93
3524;BME280;1776;53.330;11.498;2023-01-25T12:06:57;22359.31;;;-147.39;78.00
3524;BME280;1776;53.330;11.498;2023-01-25T12:22:57;22336.97;;;-147.39;76.31
3524;BME280;1776;53.330;11.498;2023-01-25T12:28:22;22353.22;;;-147.39;76.47
3524;BME280;1776;53.330;11.498;2023-01-25T12:30:55;22385.75;;;-147.39;76.59
3524;BME280;1776;53.330;11.498;2023-01-25T12:33:32;22353.22;;;-147.39;76.81
3524;BME280;1776;53.330;11.498;2023-01-25T12:38:37;22332.91;;;-147.39;77.26
3524;BME280;1776;53.330;11.498;2023-01-25T12:43:47;22343.06;;;-147.39;77.02
3524;BME280;1776;53.330;11.498;2023-01-25T12:46:44;22373.53;;;-147.39;77.23
3524;BME280;1776;53.330;11.498;2023-01-25T12:49:58;22442.66;;;-147.39;76.81
3524;BME280;1776;53.330;11.498;2023-01-25T12:52:35;22456.88;;;-147.39;76.65
3524;BME280;1776;53.330;11.498;2023-01-25T12:55:06;22377.59;;;-147.39;76.63
3524;BME280;1776;53.330;11.498;2023-01-25T12:57:49;22397.94;;;-147.39;76.19
3524;BME280;1776;53.330;11.498;2023-01-25T13:06:25;22373.53;;;-147.39;76.29
3524;BME280;1776;53.330;11.498;2023-01-25T13:11:41;22375.56;;;-147.39;76.48
3524;BME280;1776;53.330;11.498;2023-01-25T13:16:52;22391.84;;;-147.39;77.00
3524;BME280;1776;53.330;11.498;2023-01-25T13:21:52;22345.09;;;-147.39;76.79
3524;BME280;1776;53.330;11.498;2023-01-25T13:24:25;22381.66;;;-147.39;77.17
3524;BME280;1776;53.330;11.498;2023-01-25T13:32:04;22460.94;;;-147.39;76.40
3524;BME280;1776;53.330;11.498;2023-01-25T13:37:22;22367.44;;;-147.39;76.29
3524;BME280;1776;53.330;11.498;2023-01-25T13:39:52;22365.41;;;-147.39;76.48
3524;BME280;1776;53.330;11.498;2023-01-25T13:44:57;22495.50;;;-147.39;77.21
3524;BME280;1776;53.330;11.498;2023-01-25T13:47:26;22391.84;;;-147.39;77.38
3524;BME280;1776;53.330;11.498;2023-01-25T13:49:58;22320.69;;;-147.39;77.68
3524;BME280;1776;53.330;11.498;2023-01-25T13:52:26;22316.63;;;-147.39;78.20
3524;BME280;1776;53.330;11.498;2023-01-25T13:54:54;22314.59;;;-147.39;78.31
3524;BME280;1776;53.330;11.498;2023-01-25T13:57:24;22306.47;;;-147.39;78.39
3524;BME280;1776;53.330;11.498;2023-01-25T14:00:06;22296.31;;;-147.39;78.35
3524;BME280;1776;53.330;11.498;2023-01-25T14:02:35;22361.34;;;-147.39;77.97
3524;BME280;1776;53.330;11.498;2023-01-25T14:05:02;22318.66;;;-147.39;78.51
3524;BME280;1776;53.330;11.498;2023-01-25T14:07:32;22334.94;;;-147.39;78.36
3524;BME280;1776;53.330;11.498;2023-01-25T14:10:00;22290.22;;;-147.39;78.22
3524;BME280;1776;53.330;11.498;2023-01-25T14:12:37;22249.56;;;-147.39;78.27
3524;BME280;1776;53.330;11.498;2023-01-25T14:15:16;22336.97;;;-147.39;78.09
3524;BME280;1776;53.330;11.498;2023-01-25T14:17:41;22336.97;;;-147.39;78.27